createdAt,value
2022-10-12T00:04:58.831Z,15.15
2022-10-12T00:10:01.475Z,15.82
2022-10-12T00:15:04.049Z,16.27
2022-10-12T00:20:06.971Z,15.72
2022-10-12T00:25:09.469Z,15.38
2022-10-12T00:30:12.537Z,14.79
2022-10-12T00:35:14.958Z,14.59
2022-10-12T00:40:17.530Z,15.00
2022-10-12T00:45:20.120Z,14.79
2022-10-12T00:50:32.316Z,14.33
2022-10-12T00:55:38.653Z,13.90
2022-10-12T01:00:42.931Z,14.23
2022-10-12T01:05:45.427Z,14.86
2022-10-12T01:10:47.948Z,14.59
2022-10-12T01:16:01.025Z,14.21
2022-10-12T01:21:22.903Z,14.55
2022-10-12T01:26:43.411Z,14.05
2022-10-12T01:31:58.063Z,14.01
2022-10-12T01:37:12.753Z,13.95
2022-10-12T01:42:29.213Z,13.52
2022-10-12T01:47:32.488Z,14.21
2022-10-12T01:52:56.951Z,13.94
2022-10-12T01:58:26.906Z,13.87
2022-10-12T02:03:48.199Z,14.29
2022-10-12T02:09:10.572Z,13.68
2022-10-12T02:14:15.435Z,13.41
2022-10-12T02:19:23.362Z,14.02
2022-10-12T02:24:26.375Z,13.55
2022-10-12T02:29:34.350Z,13.83
2022-10-12T02:34:48.840Z,14.39
2022-10-12T02:39:51.517Z,14.17
2022-10-12T02:44:55.787Z,13.95
2022-10-12T02:50:01.459Z,13.57
2022-10-12T02:55:04.995Z,13.18
2022-10-12T03:00:08.112Z,13.25
2022-10-12T03:05:10.445Z,13.70
2022-10-12T03:10:12.833Z,14.41
2022-10-12T03:15:15.305Z,14.85
2022-10-12T03:20:17.903Z,15.08
2022-10-12T03:25:20.487Z,14.82
2022-10-12T03:30:22.881Z,14.56
2022-10-12T03:35:25.846Z,14.10
2022-10-12T03:40:28.279Z,14.12
2022-10-12T03:45:30.807Z,14.56
2022-10-12T03:50:34.979Z,14.74
2022-10-12T03:55:37.411Z,14.50
2022-10-12T04:00:39.803Z,14.17
2022-10-12T04:05:42.153Z,14.32
2022-10-12T04:10:45.008Z,14.78
2022-10-12T04:15:47.474Z,14.18
2022-10-12T04:20:50.549Z,14.00
2022-10-12T04:25:53.131Z,13.57
2022-10-12T04:30:55.529Z,13.70
2022-10-12T04:35:57.855Z,14.00
2022-10-12T04:41:00.220Z,13.71
2022-10-12T04:46:02.564Z,13.69
2022-10-12T04:51:06.177Z,14.47
2022-10-12T04:56:09.132Z,15.19
2022-10-12T05:01:11.752Z,15.10
2022-10-12T05:06:14.185Z,14.81
2022-10-12T05:11:16.571Z,14.93
2022-10-12T05:16:19.235Z,15.07
2022-10-12T05:21:21.728Z,15.11
2022-10-12T05:26:24.087Z,14.44
2022-10-12T05:31:26.609Z,14.94
2022-10-12T05:36:29.000Z,15.30
2022-10-12T05:41:31.398Z,15.43
2022-10-12T05:46:33.803Z,15.34
2022-10-12T05:51:36.234Z,15.22
2022-10-12T05:56:38.586Z,14.79
2022-10-12T06:01:41.026Z,14.51
2022-10-12T06:06:43.419Z,14.27
2022-10-12T06:11:46.059Z,14.31
2022-10-12T06:16:51.135Z,14.49
2022-10-12T06:21:57.497Z,14.57
2022-10-12T06:26:59.890Z,14.14
2022-10-12T06:32:02.307Z,13.90
2022-10-12T06:37:04.754Z,14.10
2022-10-12T06:42:08.820Z,14.48
2022-10-12T06:47:19.930Z,14.14
2022-10-12T06:52:22.336Z,13.90
2022-10-12T06:57:24.739Z,13.79
2022-10-12T07:02:27.091Z,13.80
2022-10-12T07:07:34.229Z,13.77
2022-10-12T07:12:37.699Z,13.77
2022-10-12T07:17:40.632Z,14.08
2022-10-12T07:22:44.578Z,14.28
2022-10-12T07:27:50.614Z,14.20
2022-10-12T07:32:54.953Z,14.30
2022-10-12T07:37:57.379Z,14.50
2022-10-12T07:43:15.268Z,14.55
2022-10-12T07:48:17.991Z,15.01
2022-10-12T07:53:20.781Z,15.46
2022-10-12T07:58:23.162Z,16.26
2022-10-12T08:03:25.591Z,16.83
2022-10-12T08:08:28.033Z,16.92
2022-10-12T08:13:30.782Z,16.62
2022-10-12T08:18:33.474Z,16.54
2022-10-12T08:23:37.157Z,16.43
2022-10-12T08:28:40.179Z,16.07
2022-10-12T08:33:43.220Z,16.24
2022-10-12T08:38:49.991Z,16.43
2022-10-12T08:44:17.030Z,16.09
2022-10-12T08:49:22.345Z,15.62
2022-10-12T08:54:29.387Z,15.76
2022-10-12T08:59:33.308Z,16.22
2022-10-12T09:04:50.864Z,16.30
2022-10-12T09:10:07.628Z,16.10
2022-10-12T09:15:28.712Z,16.12
2022-10-12T09:20:35.473Z,15.99
2022-10-12T09:25:38.395Z,15.66
2022-10-12T09:30:49.119Z,15.72
2022-10-12T09:35:52.925Z,15.53
2022-10-12T09:40:55.291Z,15.64
2022-10-12T09:46:02.528Z,15.72
2022-10-12T09:51:07.105Z,15.80
2022-10-12T09:56:33.320Z,15.73
2022-10-12T10:01:38.665Z,15.98
2022-10-12T10:06:46.280Z,16.15
2022-10-12T10:11:48.860Z,16.05
2022-10-12T10:16:53.206Z,16.10
2022-10-12T10:21:55.943Z,15.91
2022-10-12T10:27:02.723Z,15.98
2022-10-12T10:32:12.561Z,16.07
2022-10-12T10:37:23.059Z,16.30
2022-10-12T10:42:29.027Z,16.42
2022-10-12T10:47:33.827Z,16.66
2022-10-12T10:52:37.535Z,16.75
2022-10-12T10:57:45.466Z,16.97
2022-10-12T11:02:56.319Z,16.76
2022-10-12T11:08:26.892Z,16.81
2022-10-12T11:13:57.699Z,16.57
2022-10-12T11:19:17.798Z,16.46
2022-10-12T11:24:40.747Z,16.58
2022-10-12T11:29:43.661Z,17.10
2022-10-12T11:35:07.525Z,17.18
2022-10-12T11:40:31.084Z,17.37
2022-10-12T11:45:43.368Z,17.16
2022-10-12T11:50:51.168Z,17.37
2022-10-12T11:55:53.511Z,17.49
2022-10-12T12:01:23.597Z,17.32
2022-10-12T12:06:32.251Z,17.17
2022-10-12T12:11:35.594Z,17.07
2022-10-12T12:16:43.507Z,17.04
2022-10-12T12:22:12.096Z,17.22
2022-10-12T12:27:29.109Z,17.14
2022-10-12T12:33:01.252Z,17.46
2022-10-12T12:38:06.569Z,17.46
2022-10-12T12:43:30.779Z,17.25
2022-10-12T12:48:45.158Z,17.33
2022-10-12T12:53:59.065Z,17.20
2022-10-12T12:59:32.472Z,17.84
2022-10-12T13:05:00.269Z,18.57
2022-10-12T13:10:18.238Z,18.50
2022-10-12T13:16:05.672Z,18.27
2022-10-12T13:21:14.572Z,17.93
2022-10-12T13:26:27.462Z,20.54
2022-10-12T13:31:38.325Z,24.18
2022-10-12T13:37:00.856Z,22.08
2022-10-12T13:42:03.698Z,19.70
2022-10-12T13:47:32.635Z,18.85
2022-10-12T13:52:35.650Z,17.62
2022-10-12T13:57:42.029Z,17.52
2022-10-12T14:03:02.114Z,17.08
2022-10-12T14:08:21.406Z,17.10
2022-10-12T14:13:36.655Z,17.09
2022-10-12T14:18:42.592Z,17.06
2022-10-12T14:23:52.476Z,17.05
2022-10-12T14:28:55.142Z,16.87
2022-10-12T14:34:46.724Z,17.32
2022-10-12T14:39:52.459Z,17.67
2022-10-12T14:44:54.975Z,17.52
2022-10-12T14:49:59.295Z,17.41
2022-10-12T14:55:01.770Z,17.14
2022-10-12T15:00:05.269Z,17.17
2022-10-12T15:05:09.817Z,17.27
2022-10-12T15:10:12.591Z,17.45
2022-10-12T15:15:25.320Z,17.51
2022-10-12T15:20:32.435Z,17.36
2022-10-12T15:25:50.384Z,17.16
2022-10-12T15:31:15.946Z,16.94
2022-10-12T15:36:15.568Z,16.94
2022-10-12T15:41:20.872Z,17.41
2022-10-12T15:46:23.479Z,16.89
2022-10-12T15:51:26.333Z,17.05
2022-10-12T15:56:29.278Z,17.13
2022-10-12T16:01:33.436Z,16.75
2022-10-12T16:06:36.082Z,16.51
2022-10-12T16:11:38.596Z,16.39
2022-10-12T16:16:40.927Z,16.07
2022-10-12T16:21:43.316Z,15.83
2022-10-12T16:26:47.367Z,15.69
2022-10-12T16:31:50.020Z,15.61
2022-10-12T16:36:53.427Z,15.59
2022-10-12T16:41:55.791Z,15.95
2022-10-12T16:46:58.249Z,15.66
2022-10-12T16:52:00.636Z,15.44
2022-10-12T16:57:06.082Z,15.72
2022-10-12T17:02:10.695Z,15.83
2022-10-12T17:07:13.206Z,16.42
2022-10-12T17:12:15.912Z,17.45
2022-10-12T17:17:20.126Z,17.57
2022-10-12T17:22:22.751Z,16.89
2022-10-12T17:27:29.907Z,15.74
2022-10-12T17:32:38.069Z,15.33
2022-10-12T17:37:40.429Z,16.30
2022-10-12T17:42:44.991Z,16.01
2022-10-12T17:47:49.229Z,15.75
2022-10-12T17:52:51.905Z,16.30
2022-10-12T17:57:54.251Z,16.15
2022-10-12T18:02:56.975Z,15.71
2022-10-12T18:07:59.637Z,15.82
2022-10-12T18:13:02.049Z,15.91
2022-10-12T18:18:04.533Z,15.58
2022-10-12T18:23:07.054Z,14.92
2022-10-12T18:28:11.752Z,14.59
2022-10-12T18:33:15.147Z,15.01
2022-10-12T18:38:17.834Z,15.46
2022-10-12T18:43:20.610Z,15.48
2022-10-12T18:48:23.113Z,15.21
2022-10-12T18:53:28.146Z,15.02
2022-10-12T18:58:31.464Z,14.69
2022-10-12T19:03:34.022Z,14.48
2022-10-12T19:08:36.956Z,15.01
2022-10-12T19:13:39.967Z,15.05
2022-10-12T19:18:42.766Z,15.33
2022-10-12T19:23:46.175Z,14.88
2022-10-12T19:28:49.311Z,14.51
2022-10-12T19:33:54.070Z,14.19
2022-10-12T19:39:01.407Z,14.09
2022-10-12T19:44:04.805Z,13.93
2022-10-12T19:49:07.385Z,13.80
2022-10-12T19:54:14.742Z,14.16
2022-10-12T19:59:17.163Z,14.80
2022-10-12T20:04:19.776Z,15.03
2022-10-12T20:09:22.327Z,14.57
2022-10-12T20:14:25.792Z,14.25
2022-10-12T20:19:28.155Z,14.56
2022-10-12T20:24:30.628Z,14.73
2022-10-12T20:29:33.322Z,14.46
2022-10-12T20:34:35.874Z,14.31
2022-10-12T20:39:38.346Z,14.16
2022-10-12T20:44:41.186Z,14.23
2022-10-12T20:49:44.085Z,14.21
2022-10-12T20:54:46.569Z,13.92
2022-10-12T20:59:49.292Z,13.78
2022-10-12T21:04:52.187Z,13.81
2022-10-12T21:09:54.626Z,13.67
2022-10-12T21:14:57.025Z,13.49
2022-10-12T21:19:59.441Z,13.42
2022-10-12T21:25:01.986Z,13.33
2022-10-12T21:30:05.030Z,13.24
2022-10-12T21:35:07.691Z,13.19
2022-10-12T21:40:10.660Z,13.15
2022-10-12T21:45:13.114Z,13.19
2022-10-12T21:50:15.592Z,13.33
2022-10-12T21:55:18.146Z,13.14
2022-10-12T22:00:21.055Z,13.10
2022-10-12T22:05:24.825Z,13.04
2022-10-12T22:10:27.209Z,13.06
2022-10-12T22:15:29.602Z,13.15
2022-10-12T22:20:32.313Z,13.28
2022-10-12T22:25:34.700Z,13.35
2022-10-12T22:30:39.755Z,13.58
2022-10-12T22:35:56.254Z,13.95
2022-10-12T22:41:10.691Z,14.06
2022-10-12T22:46:18.995Z,14.23
2022-10-12T22:51:31.009Z,13.95
2022-10-12T22:56:34.100Z,14.41
2022-10-12T23:01:36.912Z,14.46
2022-10-12T23:06:39.295Z,14.05
2022-10-12T23:11:41.894Z,13.68
2022-10-12T23:16:44.223Z,13.98
2022-10-12T23:21:48.206Z,14.66
2022-10-12T23:26:50.805Z,14.37
2022-10-12T23:31:53.327Z,14.50
2022-10-12T23:36:55.740Z,14.00
2022-10-12T23:41:58.181Z,14.72
2022-10-12T23:47:00.599Z,14.76
2022-10-12T23:52:03.062Z,14.51
2022-10-12T23:57:17.867Z,13.92
